Stephenson, Michigan
Current Conditions -  °F | °C
As of 9:55 AM on Friday 24 Oct 2014 (Local Time) from KMNM Reporting Station
Overcast Overcast  
Wind Chill: 42°   Ceiling: 400
Heat Index: 46°   Visibility: 4mi
Dew Point: 45°   Wind: 8mph
Humidity: 93%   Direction: 260°W
Pressure: 30"   Gusts: NA
Location:  45.42°N, 87.61°W
Report Text: KMNM 241455Z AUTO 26007KT 4SM OVC004 08/07 A3000 RMK AO1 54000
Loading
Personal Weather Stations






























Interactive Weather Map
Tropical Storm Tracking
New forecast layout! Learn more

10-Day Weather Forecast

Advertisements
Track Severe Weather on mobile